sensor_id;sensor_type;location;lat;lon;timestamp;P1;durP1;ratioP1;P2;durP2;ratioP2
3811;SDS011;1921;49.368;11.068;2023-03-23T00:02:13;51.93;;;46.83;;
3811;SDS011;1921;49.368;11.068;2023-03-23T00:04:39;51.23;;;46.13;;
3811;SDS011;1921;49.368;11.068;2023-03-23T00:07:07;50.47;;;45.43;;
3811;SDS011;1921;49.368;11.068;2023-03-23T00:09:33;50.77;;;45.97;;
3811;SDS011;1921;49.368;11.068;2023-03-23T00:11:59;52.00;;;46.80;;
3811;SDS011;1921;49.368;11.068;2023-03-23T00:14:31;51.13;;;46.13;;
3811;SDS011;1921;49.368;11.068;2023-03-23T00:17:09;51.87;;;46.87;;
3811;SDS011;1921;49.368;11.068;2023-03-23T00:19:36;50.67;;;45.90;;
3811;SDS011;1921;49.368;11.068;2023-03-23T00:22:21;50.60;;;45.70;;
3811;SDS011;1921;49.368;11.068;2023-03-23T00:24:49;50.00;;;45.40;;
3811;SDS011;1921;49.368;11.068;2023-03-23T00:27:16;51.57;;;46.60;;
3811;SDS011;1921;49.368;11.068;2023-03-23T00:29:42;50.80;;;45.90;;
3811;SDS011;1921;49.368;11.068;2023-03-23T00:32:10;51.03;;;46.23;;
3811;SDS011;1921;49.368;11.068;2023-03-23T00:34:39;51.20;;;46.30;;
3811;SDS011;1921;49.368;11.068;2023-03-23T00:37:10;50.60;;;45.80;;
3811;SDS011;1921;49.368;11.068;2023-03-23T00:39:37;50.97;;;46.10;;
3811;SDS011;1921;49.368;11.068;2023-03-23T00:42:03;51.40;;;46.40;;
3811;SDS011;1921;49.368;11.068;2023-03-23T00:44:31;51.73;;;46.37;;
3811;SDS011;1921;49.368;11.068;2023-03-23T00:46:59;50.20;;;45.53;;
3811;SDS011;1921;49.368;11.068;2023-03-23T00:49:26;51.57;;;46.50;;
3811;SDS011;1921;49.368;11.068;2023-03-23T00:51:53;50.83;;;45.90;;
3811;SDS011;1921;49.368;11.068;2023-03-23T00:54:21;50.83;;;45.93;;
3811;SDS011;1921;49.368;11.068;2023-03-23T00:56:47;50.53;;;45.70;;
3811;SDS011;1921;49.368;11.068;2023-03-23T00:59:13;50.90;;;45.80;;
3811;SDS011;1921;49.368;11.068;2023-03-23T01:01:39;50.87;;;45.97;;
3811;SDS011;1921;49.368;11.068;2023-03-23T01:04:06;51.37;;;46.47;;
3811;SDS011;1921;49.368;11.068;2023-03-23T01:06:36;50.93;;;46.03;;
3811;SDS011;1921;49.368;11.068;2023-03-23T01:09:04;51.30;;;46.10;;
3811;SDS011;1921;49.368;11.068;2023-03-23T01:11:32;51.57;;;46.40;;
3811;SDS011;1921;49.368;11.068;2023-03-23T01:13:58;50.03;;;45.33;;
3811;SDS011;1921;49.368;11.068;2023-03-23T01:16:25;51.27;;;46.37;;
3811;SDS011;1921;49.368;11.068;2023-03-23T01:18:51;51.40;;;46.40;;
3811;SDS011;1921;49.368;11.068;2023-03-23T01:21:17;51.40;;;46.40;;
3811;SDS011;1921;49.368;11.068;2023-03-23T01:23:45;51.60;;;46.40;;
3811;SDS011;1921;49.368;11.068;2023-03-23T01:26:15;51.00;;;46.20;;
3811;SDS011;1921;49.368;11.068;2023-03-23T01:28:45;51.03;;;46.13;;
3811;SDS011;1921;49.368;11.068;2023-03-23T01:31:12;52.07;;;46.87;;
3811;SDS011;1921;49.368;11.068;2023-03-23T01:33:42;51.20;;;46.20;;
3811;SDS011;1921;49.368;11.068;2023-03-23T01:36:15;51.40;;;46.40;;
3811;SDS011;1921;49.368;11.068;2023-03-23T01:38:45;50.70;;;45.90;;
3811;SDS011;1921;49.368;11.068;2023-03-23T01:41:13;50.40;;;45.60;;
3811;SDS011;1921;49.368;11.068;2023-03-23T01:43:54;50.97;;;46.07;;
3811;SDS011;1921;49.368;11.068;2023-03-23T01:46:22;50.57;;;45.70;;
3811;SDS011;1921;49.368;11.068;2023-03-23T01:48:51;51.20;;;46.10;;
3811;SDS011;1921;49.368;11.068;2023-03-23T01:51:17;51.10;;;46.00;;
3811;SDS011;1921;49.368;11.068;2023-03-23T01:53:46;51.10;;;45.80;;
3811;SDS011;1921;49.368;11.068;2023-03-23T01:56:22;50.97;;;45.90;;
3811;SDS011;1921;49.368;11.068;2023-03-23T01:58:54;50.80;;;45.80;;
3811;SDS011;1921;49.368;11.068;2023-03-23T02:01:21;50.73;;;45.63;;
3811;SDS011;1921;49.368;11.068;2023-03-23T02:03:49;51.00;;;45.83;;
3811;SDS011;1921;49.368;11.068;2023-03-23T02:06:19;50.93;;;45.83;;
3811;SDS011;1921;49.368;11.068;2023-03-23T02:08:45;50.63;;;45.63;;
3811;SDS011;1921;49.368;11.068;2023-03-23T02:11:16;50.80;;;45.80;;
3811;SDS011;1921;49.368;11.068;2023-03-23T02:13:45;50.93;;;46.00;;
3811;SDS011;1921;49.368;11.068;2023-03-23T02:39:32;51.47;;;46.07;;
3811;SDS011;1921;49.368;11.068;2023-03-23T02:42:10;51.13;;;46.13;;
3811;SDS011;1921;49.368;11.068;2023-03-23T02:44:41;51.20;;;46.00;;
3811;SDS011;1921;49.368;11.068;2023-03-23T02:47:11;50.70;;;45.80;;
3811;SDS011;1921;49.368;11.068;2023-03-23T02:49:43;50.60;;;45.60;;
3811;SDS011;1921;49.368;11.068;2023-03-23T02:52:16;51.27;;;46.07;;
3811;SDS011;1921;49.368;11.068;2023-03-23T02:54:47;51.00;;;46.00;;
3811;SDS011;1921;49.368;11.068;2023-03-23T02:57:14;50.97;;;45.93;;
3811;SDS011;1921;49.368;11.068;2023-03-23T02:59:41;50.80;;;45.80;;
3811;SDS011;1921;49.368;11.068;2023-03-23T03:02:09;51.53;;;46.43;;
3811;SDS011;1921;49.368;11.068;2023-03-23T03:11:08;50.93;;;45.83;;
3811;SDS011;1921;49.368;11.068;2023-03-23T03:16:33;50.37;;;45.47;;
3811;SDS011;1921;49.368;11.068;2023-03-23T03:19:23;51.80;;;46.30;;
3811;SDS011;1921;49.368;11.068;2023-03-23T03:21:58;50.50;;;45.60;;
3811;SDS011;1921;49.368;11.068;2023-03-23T03:24:25;51.10;;;46.10;;
3811;SDS011;1921;49.368;11.068;2023-03-23T03:26:54;50.53;;;45.63;;
3811;SDS011;1921;49.368;11.068;2023-03-23T03:29:29;50.90;;;45.80;;
3811;SDS011;1921;49.368;11.068;2023-03-23T03:31:59;50.87;;;45.87;;
3811;SDS011;1921;49.368;11.068;2023-03-23T03:34:33;49.90;;;45.00;;
3811;SDS011;1921;49.368;11.068;2023-03-23T03:36:59;50.93;;;45.90;;
3811;SDS011;1921;49.368;11.068;2023-03-23T03:39:25;51.17;;;46.07;;
3811;SDS011;1921;49.368;11.068;2023-03-23T03:41:52;50.73;;;45.73;;
3811;SDS011;1921;49.368;11.068;2023-03-23T03:44:19;51.37;;;46.27;;
3811;SDS011;1921;49.368;11.068;2023-03-23T03:46:45;50.20;;;45.30;;
3811;SDS011;1921;49.368;11.068;2023-03-23T03:49:11;51.17;;;46.13;;
3811;SDS011;1921;49.368;11.068;2023-03-23T03:51:37;50.97;;;45.97;;
3811;SDS011;1921;49.368;11.068;2023-03-23T03:54:05;50.60;;;45.60;;
3811;SDS011;1921;49.368;11.068;2023-03-23T03:56:31;51.50;;;46.30;;
3811;SDS011;1921;49.368;11.068;2023-03-23T03:59:00;50.77;;;45.77;;
3811;SDS011;1921;49.368;11.068;2023-03-23T04:01:27;50.57;;;45.67;;
3811;SDS011;1921;49.368;11.068;2023-03-23T04:03:53;50.43;;;45.47;;
3811;SDS011;1921;49.368;11.068;2023-03-23T04:06:19;49.80;;;45.00;;
3811;SDS011;1921;49.368;11.068;2023-03-23T04:08:46;50.53;;;45.63;;
3811;SDS011;1921;49.368;11.068;2023-03-23T04:11:12;51.17;;;45.73;;
3811;SDS011;1921;49.368;11.068;2023-03-23T04:13:39;50.83;;;45.57;;
3811;SDS011;1921;49.368;11.068;2023-03-23T04:16:06;50.57;;;45.57;;
3811;SDS011;1921;49.368;11.068;2023-03-23T04:18:32;50.13;;;45.30;;
3811;SDS011;1921;49.368;11.068;2023-03-23T04:20:59;50.13;;;45.23;;
3811;SDS011;1921;49.368;11.068;2023-03-23T04:23:28;50.90;;;45.80;;
3811;SDS011;1921;49.368;11.068;2023-03-23T04:25:58;50.03;;;45.13;;
3811;SDS011;1921;49.368;11.068;2023-03-23T04:28:25;50.60;;;45.70;;
3811;SDS011;1921;49.368;11.068;2023-03-23T04:30:53;51.00;;;45.70;;
3811;SDS011;1921;49.368;11.068;2023-03-23T04:33:20;50.23;;;45.43;;
3811;SDS011;1921;49.368;11.068;2023-03-23T04:35:50;50.87;;;45.87;;
3811;SDS011;1921;49.368;11.068;2023-03-23T04:38:18;50.50;;;45.50;;
3811;SDS011;1921;49.368;11.068;2023-03-23T04:40:45;50.23;;;45.37;;
3811;SDS011;1921;49.368;11.068;2023-03-23T04:43:13;51.30;;;46.00;;
3811;SDS011;1921;49.368;11.068;2023-03-23T04:45:39;50.30;;;45.40;;
3811;SDS011;1921;49.368;11.068;2023-03-23T04:48:10;50.70;;;45.80;;
3811;SDS011;1921;49.368;11.068;2023-03-23T04:50:36;51.17;;;45.93;;
3811;SDS011;1921;49.368;11.068;2023-03-23T04:53:03;51.07;;;46.07;;
3811;SDS011;1921;49.368;11.068;2023-03-23T04:55:30;50.40;;;45.50;;
3811;SDS011;1921;49.368;11.068;2023-03-23T04:58:01;50.50;;;45.60;;
3811;SDS011;1921;49.368;11.068;2023-03-23T05:00:30;50.57;;;45.57;;
3811;SDS011;1921;49.368;11.068;2023-03-23T05:02:58;51.00;;;45.90;;
3811;SDS011;1921;49.368;11.068;2023-03-23T05:05:25;50.97;;;45.97;;
3811;SDS011;1921;49.368;11.068;2023-03-23T05:07:55;51.20;;;46.10;;
3811;SDS011;1921;49.368;11.068;2023-03-23T05:10:22;51.20;;;46.10;;
3811;SDS011;1921;49.368;11.068;2023-03-23T05:12:48;50.30;;;45.40;;
3811;SDS011;1921;49.368;11.068;2023-03-23T05:15:15;51.20;;;46.00;;
3811;SDS011;1921;49.368;11.068;2023-03-23T05:17:41;50.40;;;45.50;;
3811;SDS011;1921;49.368;11.068;2023-03-23T05:20:11;51.73;;;46.40;;
3811;SDS011;1921;49.368;11.068;2023-03-23T05:22:40;50.40;;;45.40;;
3811;SDS011;1921;49.368;11.068;2023-03-23T05:25:07;50.87;;;45.87;;
3811;SDS011;1921;49.368;11.068;2023-03-23T05:27:34;50.73;;;45.67;;
3811;SDS011;1921;49.368;11.068;2023-03-23T05:30:01;51.50;;;46.40;;
3811;SDS011;1921;49.368;11.068;2023-03-23T05:32:27;50.70;;;45.70;;
3811;SDS011;1921;49.368;11.068;2023-03-23T05:34:54;51.30;;;46.13;;
3811;SDS011;1921;49.368;11.068;2023-03-23T05:37:21;50.93;;;45.83;;
3811;SDS011;1921;49.368;11.068;2023-03-23T05:39:48;51.90;;;46.60;;
3811;SDS011;1921;49.368;11.068;2023-03-23T05:42:18;51.73;;;46.23;;
3811;SDS011;1921;49.368;11.068;2023-03-23T05:44:45;50.90;;;45.90;;
3811;SDS011;1921;49.368;11.068;2023-03-23T05:47:12;51.00;;;46.00;;
3811;SDS011;1921;49.368;11.068;2023-03-23T05:49:38;52.20;;;46.80;;
3811;SDS011;1921;49.368;11.068;2023-03-23T05:52:03;51.50;;;46.37;;
3811;SDS011;1921;49.368;11.068;2023-03-23T05:54:29;50.90;;;45.80;;
3811;SDS011;1921;49.368;11.068;2023-03-23T05:56:55;51.37;;;46.27;;
3811;SDS011;1921;49.368;11.068;2023-03-23T05:59:21;51.37;;;46.30;;
3811;SDS011;1921;49.368;11.068;2023-03-23T06:01:46;51.63;;;46.43;;
3811;SDS011;1921;49.368;11.068;2023-03-23T06:04:12;51.60;;;46.40;;
3811;SDS011;1921;49.368;11.068;2023-03-23T06:06:38;51.67;;;46.37;;
3811;SDS011;1921;49.368;11.068;2023-03-23T06:09:06;52.10;;;46.70;;
3811;SDS011;1921;49.368;11.068;2023-03-23T06:11:32;52.10;;;46.70;;
3811;SDS011;1921;49.368;11.068;2023-03-23T06:13:59;52.43;;;46.93;;
3811;SDS011;1921;49.368;11.068;2023-03-23T06:16:24;52.07;;;46.57;;
3811;SDS011;1921;49.368;11.068;2023-03-23T06:18:50;52.03;;;46.60;;
3811;SDS011;1921;49.368;11.068;2023-03-23T06:21:16;51.67;;;46.40;;
3811;SDS011;1921;49.368;11.068;2023-03-23T06:23:43;52.40;;;47.00;;
3811;SDS011;1921;49.368;11.068;2023-03-23T06:26:10;52.47;;;46.97;;
3811;SDS011;1921;49.368;11.068;2023-03-23T06:28:39;52.43;;;47.03;;
3811;SDS011;1921;49.368;11.068;2023-03-23T06:31:05;52.60;;;47.10;;
3811;SDS011;1921;49.368;11.068;2023-03-23T06:33:36;55.10;;;47.40;;
3811;SDS011;1921;49.368;11.068;2023-03-23T06:36:03;52.10;;;46.73;;
3811;SDS011;1921;49.368;11.068;2023-03-23T06:38:29;53.00;;;47.30;;
3811;SDS011;1921;49.368;11.068;2023-03-23T06:40:56;52.13;;;46.83;;
3811;SDS011;1921;49.368;11.068;2023-03-23T06:43:23;52.70;;;47.20;;
3811;SDS011;1921;49.368;11.068;2023-03-23T06:45:49;53.10;;;47.40;;
3811;SDS011;1921;49.368;11.068;2023-03-23T06:48:16;52.40;;;47.00;;
3811;SDS011;1921;49.368;11.068;2023-03-23T06:50:42;52.30;;;46.90;;
3811;SDS011;1921;49.368;11.068;2023-03-23T06:53:09;52.10;;;46.80;;
3811;SDS011;1921;49.368;11.068;2023-03-23T06:55:36;53.83;;;48.07;;
3811;SDS011;1921;49.368;11.068;2023-03-23T06:58:03;52.87;;;47.30;;
3811;SDS011;1921;49.368;11.068;2023-03-23T07:00:33;52.93;;;47.33;;
3811;SDS011;1921;49.368;11.068;2023-03-23T07:02:59;53.13;;;47.53;;
3811;SDS011;1921;49.368;11.068;2023-03-23T07:05:26;54.13;;;48.40;;
3811;SDS011;1921;49.368;11.068;2023-03-23T07:07:51;55.70;;;47.90;;
3811;SDS011;1921;49.368;11.068;2023-03-23T07:10:17;52.57;;;47.03;;
3811;SDS011;1921;49.368;11.068;2023-03-23T07:12:43;54.33;;;48.43;;
3811;SDS011;1921;49.368;11.068;2023-03-23T07:15:09;54.17;;;48.37;;
3811;SDS011;1921;49.368;11.068;2023-03-23T07:17:36;54.50;;;48.60;;
3811;SDS011;1921;49.368;11.068;2023-03-23T07:20:03;55.17;;;48.83;;
3811;SDS011;1921;49.368;11.068;2023-03-23T07:22:30;58.40;;;48.57;;
3811;SDS011;1921;49.368;11.068;2023-03-23T07:24:56;54.20;;;48.40;;
3811;SDS011;1921;49.368;11.068;2023-03-23T07:27:22;54.30;;;48.40;;
3811;SDS011;1921;49.368;11.068;2023-03-23T07:29:48;54.77;;;48.77;;
3811;SDS011;1921;49.368;11.068;2023-03-23T07:32:14;54.53;;;48.57;;
3811;SDS011;1921;49.368;11.068;2023-03-23T07:34:40;58.37;;;49.13;;
3811;SDS011;1921;49.368;11.068;2023-03-23T07:37:06;55.07;;;49.00;;
3811;SDS011;1921;49.368;11.068;2023-03-23T07:39:33;58.80;;;49.33;;
3811;SDS011;1921;49.368;11.068;2023-03-23T07:41:59;54.63;;;48.73;;
3811;SDS011;1921;49.368;11.068;2023-03-23T07:44:25;55.43;;;49.17;;
3811;SDS011;1921;49.368;11.068;2023-03-23T07:46:51;54.80;;;48.90;;
3811;SDS011;1921;49.368;11.068;2023-03-23T07:49:17;54.23;;;48.43;;
3811;SDS011;1921;49.368;11.068;2023-03-23T07:51:44;54.27;;;48.33;;
3811;SDS011;1921;49.368;11.068;2023-03-23T07:54:11;54.80;;;48.90;;
3811;SDS011;1921;49.368;11.068;2023-03-23T07:56:37;54.80;;;48.80;;
3811;SDS011;1921;49.368;11.068;2023-03-23T07:59:06;55.53;;;48.80;;
3811;SDS011;1921;49.368;11.068;2023-03-23T08:01:32;55.20;;;49.30;;
3811;SDS011;1921;49.368;11.068;2023-03-23T08:03:58;55.57;;;48.70;;
3811;SDS011;1921;49.368;11.068;2023-03-23T08:06:24;55.90;;;49.80;;
3811;SDS011;1921;49.368;11.068;2023-03-23T08:08:52;54.93;;;49.03;;
3811;SDS011;1921;49.368;11.068;2023-03-23T08:11:18;55.70;;;49.50;;
3811;SDS011;1921;49.368;11.068;2023-03-23T08:13:45;55.23;;;49.10;;
3811;SDS011;1921;49.368;11.068;2023-03-23T08:16:11;56.47;;;49.63;;
3811;SDS011;1921;49.368;11.068;2023-03-23T08:18:38;59.10;;;49.00;;
3811;SDS011;1921;49.368;11.068;2023-03-23T08:21:05;55.83;;;49.60;;
3811;SDS011;1921;49.368;11.068;2023-03-23T08:23:34;61.70;;;49.00;;
3811;SDS011;1921;49.368;11.068;2023-03-23T08:26:07;55.00;;;48.83;;
3811;SDS011;1921;49.368;11.068;2023-03-23T08:28:34;54.63;;;48.70;;
3811;SDS011;1921;49.368;11.068;2023-03-23T08:31:05;58.30;;;49.47;;
3811;SDS011;1921;49.368;11.068;2023-03-23T08:33:35;54.80;;;48.80;;
3811;SDS011;1921;49.368;11.068;2023-03-23T08:36:02;55.43;;;49.10;;
3811;SDS011;1921;49.368;11.068;2023-03-23T08:38:28;55.50;;;49.07;;
3811;SDS011;1921;49.368;11.068;2023-03-23T08:40:59;54.40;;;48.60;;
3811;SDS011;1921;49.368;11.068;2023-03-23T08:43:26;60.23;;;49.33;;
3811;SDS011;1921;49.368;11.068;2023-03-23T08:45:52;53.83;;;48.10;;
3811;SDS011;1921;49.368;11.068;2023-03-23T08:48:20;54.20;;;48.40;;
3811;SDS011;1921;49.368;11.068;2023-03-23T08:50:47;53.87;;;48.07;;
3811;SDS011;1921;49.368;11.068;2023-03-23T08:53:14;54.20;;;48.40;;
3811;SDS011;1921;49.368;11.068;2023-03-23T08:55:41;53.60;;;47.83;;
3811;SDS011;1921;49.368;11.068;2023-03-23T08:58:07;57.97;;;48.40;;
3811;SDS011;1921;49.368;11.068;2023-03-23T09:00:34;54.60;;;48.70;;
3811;SDS011;1921;49.368;11.068;2023-03-23T09:03:00;54.53;;;48.50;;
3811;SDS011;1921;49.368;11.068;2023-03-23T09:05:27;55.23;;;48.37;;
3811;SDS011;1921;49.368;11.068;2023-03-23T09:07:55;54.20;;;48.40;;
3811;SDS011;1921;49.368;11.068;2023-03-23T09:10:26;66.57;;;49.13;;
3811;SDS011;1921;49.368;11.068;2023-03-23T09:12:55;55.13;;;49.10;;
3811;SDS011;1921;49.368;11.068;2023-03-23T09:15:21;55.03;;;48.83;;
3811;SDS011;1921;49.368;11.068;2023-03-23T09:17:49;56.63;;;49.10;;
3811;SDS011;1921;49.368;11.068;2023-03-23T09:20:21;55.57;;;48.77;;
3811;SDS011;1921;49.368;11.068;2023-03-23T09:22:50;55.80;;;49.20;;
3811;SDS011;1921;49.368;11.068;2023-03-23T09:25:24;56.70;;;49.60;;
3811;SDS011;1921;49.368;11.068;2023-03-23T09:27:53;55.47;;;49.03;;
3811;SDS011;1921;49.368;11.068;2023-03-23T09:30:27;56.10;;;49.23;;
3811;SDS011;1921;49.368;11.068;2023-03-23T09:32:59;55.63;;;49.30;;
3811;SDS011;1921;49.368;11.068;2023-03-23T09:35:26;57.53;;;50.33;;
3811;SDS011;1921;49.368;11.068;2023-03-23T09:37:53;57.50;;;49.90;;
3811;SDS011;1921;49.368;11.068;2023-03-23T09:40:20;56.77;;;49.87;;
3811;SDS011;1921;49.368;11.068;2023-03-23T09:46:16;55.30;;;49.13;;
3811;SDS011;1921;49.368;11.068;2023-03-23T09:49:49;56.60;;;49.53;;
3811;SDS011;1921;49.368;11.068;2023-03-23T09:52:02;57.47;;;49.43;;
3811;SDS011;1921;49.368;11.068;2023-03-23T09:54:45;57.33;;;49.87;;
3811;SDS011;1921;49.368;11.068;2023-03-23T10:00:09;56.57;;;49.60;;
3811;SDS011;1921;49.368;11.068;2023-03-23T10:05:50;58.13;;;49.87;;
3811;SDS011;1921;49.368;11.068;2023-03-23T10:08:19;56.70;;;50.00;;
3811;SDS011;1921;49.368;11.068;2023-03-23T10:16:07;58.50;;;50.10;;
3811;SDS011;1921;49.368;11.068;2023-03-23T10:18:41;57.70;;;49.63;;
3811;SDS011;1921;49.368;11.068;2023-03-23T10:21:38;55.90;;;49.47;;
3811;SDS011;1921;49.368;11.068;2023-03-23T10:24:13;55.70;;;49.20;;
3811;SDS011;1921;49.368;11.068;2023-03-23T10:26:45;56.27;;;49.30;;
3811;SDS011;1921;49.368;11.068;2023-03-23T10:29:39;56.60;;;49.77;;
3811;SDS011;1921;49.368;11.068;2023-03-23T10:32:20;55.43;;;49.23;;
3811;SDS011;1921;49.368;11.068;2023-03-23T10:35:17;54.77;;;48.77;;
3811;SDS011;1921;49.368;11.068;2023-03-23T10:37:52;54.73;;;48.80;;
3811;SDS011;1921;49.368;11.068;2023-03-23T10:40:26;55.23;;;49.13;;
3811;SDS011;1921;49.368;11.068;2023-03-23T10:42:55;54.73;;;48.80;;
3811;SDS011;1921;49.368;11.068;2023-03-23T10:45:29;55.37;;;49.27;;
3811;SDS011;1921;49.368;11.068;2023-03-23T10:48:07;56.00;;;48.27;;
3811;SDS011;1921;49.368;11.068;2023-03-23T10:50:57;54.23;;;48.30;;
3811;SDS011;1921;49.368;11.068;2023-03-23T10:53:31;53.77;;;47.97;;
3811;SDS011;1921;49.368;11.068;2023-03-23T10:56:01;53.57;;;47.73;;
3811;SDS011;1921;49.368;11.068;2023-03-23T10:58:29;54.13;;;48.30;;
3811;SDS011;1921;49.368;11.068;2023-03-23T11:01:01;53.90;;;48.00;;
3811;SDS011;1921;49.368;11.068;2023-03-23T11:06:03;54.20;;;48.40;;
3811;SDS011;1921;49.368;11.068;2023-03-23T11:08:34;53.60;;;47.80;;
3811;SDS011;1921;49.368;11.068;2023-03-23T11:11:27;55.00;;;48.23;;
3811;SDS011;1921;49.368;11.068;2023-03-23T11:14:00;53.80;;;48.00;;
3811;SDS011;1921;49.368;11.068;2023-03-23T11:17:04;53.40;;;47.60;;
3811;SDS011;1921;49.368;11.068;2023-03-23T11:19:49;53.73;;;47.93;;
3811;SDS011;1921;49.368;11.068;2023-03-23T11:22:26;53.97;;;48.17;;
3811;SDS011;1921;49.368;11.068;2023-03-23T11:24:56;53.80;;;48.00;;
3811;SDS011;1921;49.368;11.068;2023-03-23T11:27:27;53.73;;;47.93;;
3811;SDS011;1921;49.368;11.068;2023-03-23T11:29:54;54.47;;;48.57;;
3811;SDS011;1921;49.368;11.068;2023-03-23T11:32:26;53.90;;;48.10;;
3811;SDS011;1921;49.368;11.068;2023-03-23T11:34:59;54.30;;;48.30;;
3811;SDS011;1921;49.368;11.068;2023-03-23T11:37:32;54.03;;;48.17;;
3811;SDS011;1921;49.368;11.068;2023-03-23T11:42:58;55.70;;;48.67;;
3811;SDS011;1921;49.368;11.068;2023-03-23T11:45:38;53.90;;;48.10;;
3811;SDS011;1921;49.368;11.068;2023-03-23T11:48:13;54.40;;;48.50;;
3811;SDS011;1921;49.368;11.068;2023-03-23T11:51:17;53.77;;;47.97;;
3811;SDS011;1921;49.368;11.068;2023-03-23T11:54:38;53.70;;;47.90;;
3811;SDS011;1921;49.368;11.068;2023-03-23T11:57:13;60.50;;;48.50;;
3811;SDS011;1921;49.368;11.068;2023-03-23T11:59:40;54.17;;;48.27;;
3811;SDS011;1921;49.368;11.068;2023-03-23T12:23:11;52.93;;;47.33;;
3811;SDS011;1921;49.368;11.068;2023-03-23T12:26:00;53.80;;;48.10;;
3811;SDS011;1921;49.368;11.068;2023-03-23T12:29:05;53.73;;;47.93;;
3811;SDS011;1921;49.368;11.068;2023-03-23T12:34:47;54.33;;;48.40;;
3811;SDS011;1921;49.368;11.068;2023-03-23T12:40:21;55.27;;;49.13;;
3811;SDS011;1921;49.368;11.068;2023-03-23T12:48:39;58.93;;;49.37;;
3811;SDS011;1921;49.368;11.068;2023-03-23T12:51:18;55.43;;;49.20;;
3811;SDS011;1921;49.368;11.068;2023-03-23T12:57:05;57.30;;;49.20;;
3811;SDS011;1921;49.368;11.068;2023-03-23T13:00:02;54.87;;;48.80;;
3811;SDS011;1921;49.368;11.068;2023-03-23T13:08:21;54.43;;;48.47;;
3811;SDS011;1921;49.368;11.068;2023-03-23T13:11:23;54.90;;;48.57;;
3811;SDS011;1921;49.368;11.068;2023-03-23T13:14:16;54.70;;;48.73;;
3811;SDS011;1921;49.368;11.068;2023-03-23T13:17:21;54.70;;;48.70;;
3811;SDS011;1921;49.368;11.068;2023-03-23T13:26:02;55.40;;;48.93;;
3811;SDS011;1921;49.368;11.068;2023-03-23T13:34:20;54.53;;;48.57;;
3811;SDS011;1921;49.368;11.068;2023-03-23T13:36:58;54.30;;;48.30;;
3811;SDS011;1921;49.368;11.068;2023-03-23T13:39:31;54.60;;;48.60;;
3811;SDS011;1921;49.368;11.068;2023-03-23T13:42:16;54.50;;;48.60;;
3811;SDS011;1921;49.368;11.068;2023-03-23T13:49:56;55.13;;;48.87;;
3811;SDS011;1921;49.368;11.068;2023-03-23T14:03:01;55.77;;;49.40;;
3811;SDS011;1921;49.368;11.068;2023-03-23T14:16:22;55.37;;;49.07;;
3811;SDS011;1921;49.368;11.068;2023-03-23T14:18:59;57.37;;;49.60;;
3811;SDS011;1921;49.368;11.068;2023-03-23T14:24:03;55.50;;;49.27;;
3811;SDS011;1921;49.368;11.068;2023-03-23T14:26:40;55.80;;;49.50;;
3811;SDS011;1921;49.368;11.068;2023-03-23T14:29:09;57.30;;;49.70;;
3811;SDS011;1921;49.368;11.068;2023-03-23T14:31:38;55.83;;;49.30;;
3811;SDS011;1921;49.368;11.068;2023-03-23T14:34:18;57.10;;;49.50;;
3811;SDS011;1921;49.368;11.068;2023-03-23T14:36:45;55.97;;;49.37;;
3811;SDS011;1921;49.368;11.068;2023-03-23T14:39:20;55.67;;;49.40;;
3811;SDS011;1921;49.368;11.068;2023-03-23T14:41:52;56.53;;;49.57;;
3811;SDS011;1921;49.368;11.068;2023-03-23T14:44:29;60.50;;;49.70;;
3811;SDS011;1921;49.368;11.068;2023-03-23T14:46:58;56.20;;;49.40;;
3811;SDS011;1921;49.368;11.068;2023-03-23T14:49:35;55.57;;;49.30;;
3811;SDS011;1921;49.368;11.068;2023-03-23T14:52:08;58.10;;;49.57;;
3811;SDS011;1921;49.368;11.068;2023-03-23T14:54:40;56.77;;;49.57;;
3811;SDS011;1921;49.368;11.068;2023-03-23T14:57:29;55.53;;;49.00;;
3811;SDS011;1921;49.368;11.068;2023-03-23T14:59:54;55.47;;;49.33;;
3811;SDS011;1921;49.368;11.068;2023-03-23T15:04:53;54.87;;;48.77;;
3811;SDS011;1921;49.368;11.068;2023-03-23T15:07:24;54.83;;;48.83;;
3811;SDS011;1921;49.368;11.068;2023-03-23T15:09:57;55.17;;;49.10;;
3811;SDS011;1921;49.368;11.068;2023-03-23T15:12:24;57.30;;;49.03;;
3811;SDS011;1921;49.368;11.068;2023-03-23T15:14:54;56.00;;;49.33;;
3811;SDS011;1921;49.368;11.068;2023-03-23T15:17:31;54.90;;;48.90;;
3811;SDS011;1921;49.368;11.068;2023-03-23T15:23:21;55.10;;;48.60;;
3811;SDS011;1921;49.368;11.068;2023-03-23T15:25:53;54.90;;;48.90;;
3811;SDS011;1921;49.368;11.068;2023-03-23T15:28:29;55.80;;;48.70;;
3811;SDS011;1921;49.368;11.068;2023-03-23T15:30:58;55.53;;;48.97;;
3811;SDS011;1921;49.368;11.068;2023-03-23T15:33:35;54.37;;;48.47;;
3811;SDS011;1921;49.368;11.068;2023-03-23T15:36:14;54.83;;;48.83;;
3811;SDS011;1921;49.368;11.068;2023-03-23T15:38:43;54.53;;;48.63;;
3811;SDS011;1921;49.368;11.068;2023-03-23T15:41:22;55.00;;;48.80;;
3811;SDS011;1921;49.368;11.068;2023-03-23T15:43:52;54.53;;;48.60;;
3811;SDS011;1921;49.368;11.068;2023-03-23T15:46:28;54.23;;;48.37;;
3811;SDS011;1921;49.368;11.068;2023-03-23T15:51:23;57.33;;;48.77;;
3811;SDS011;1921;49.368;11.068;2023-03-23T15:53:53;54.57;;;48.57;;
3811;SDS011;1921;49.368;11.068;2023-03-23T15:56:21;54.03;;;48.13;;
3811;SDS011;1921;49.368;11.068;2023-03-23T15:58:47;54.50;;;48.60;;
3811;SDS011;1921;49.368;11.068;2023-03-23T16:01:15;54.10;;;48.10;;
3811;SDS011;1921;49.368;11.068;2023-03-23T16:03:47;54.83;;;48.90;;
3811;SDS011;1921;49.368;11.068;2023-03-23T16:06:21;58.53;;;49.23;;
3811;SDS011;1921;49.368;11.068;2023-03-23T16:08:50;54.70;;;48.70;;
3811;SDS011;1921;49.368;11.068;2023-03-23T16:11:17;54.30;;;48.50;;
3811;SDS011;1921;49.368;11.068;2023-03-23T16:13:43;54.07;;;48.27;;
3811;SDS011;1921;49.368;11.068;2023-03-23T16:16:14;54.07;;;48.17;;
3811;SDS011;1921;49.368;11.068;2023-03-23T16:19:00;54.03;;;48.23;;
3811;SDS011;1921;49.368;11.068;2023-03-23T16:21:27;54.17;;;48.27;;
3811;SDS011;1921;49.368;11.068;2023-03-23T16:23:53;54.10;;;48.30;;
3811;SDS011;1921;49.368;11.068;2023-03-23T16:26:20;54.50;;;48.50;;
3811;SDS011;1921;49.368;11.068;2023-03-23T16:28:45;54.17;;;48.37;;
3811;SDS011;1921;49.368;11.068;2023-03-23T16:31:11;53.60;;;47.80;;
3811;SDS011;1921;49.368;11.068;2023-03-23T16:33:37;55.70;;;47.83;;
3811;SDS011;1921;49.368;11.068;2023-03-23T16:36:03;53.73;;;47.93;;
3811;SDS011;1921;49.368;11.068;2023-03-23T16:38:29;54.27;;;48.47;;
3811;SDS011;1921;49.368;11.068;2023-03-23T16:40:55;54.10;;;48.30;;
3811;SDS011;1921;49.368;11.068;2023-03-23T16:43:21;53.77;;;47.90;;
3811;SDS011;1921;49.368;11.068;2023-03-23T16:45:47;54.13;;;48.33;;
3811;SDS011;1921;49.368;11.068;2023-03-23T16:48:13;54.33;;;48.33;;
3811;SDS011;1921;49.368;11.068;2023-03-23T16:50:40;54.10;;;48.30;;
3811;SDS011;1921;49.368;11.068;2023-03-23T16:53:08;53.90;;;48.17;;
3811;SDS011;1921;49.368;11.068;2023-03-23T16:55:34;54.87;;;48.50;;
3811;SDS011;1921;49.368;11.068;2023-03-23T16:58:01;54.80;;;48.90;;
3811;SDS011;1921;49.368;11.068;2023-03-23T17:00:28;56.87;;;49.83;;
3811;SDS011;1921;49.368;11.068;2023-03-23T17:02:54;55.80;;;48.97;;
3811;SDS011;1921;49.368;11.068;2023-03-23T17:05:22;53.67;;;47.97;;
3811;SDS011;1921;49.368;11.068;2023-03-23T17:07:50;54.17;;;48.37;;
3811;SDS011;1921;49.368;11.068;2023-03-23T17:10:19;53.93;;;48.13;;
3811;SDS011;1921;49.368;11.068;2023-03-23T17:12:46;54.40;;;48.50;;
3811;SDS011;1921;49.368;11.068;2023-03-23T17:15:12;54.20;;;48.43;;
3811;SDS011;1921;49.368;11.068;2023-03-23T17:17:38;54.10;;;48.30;;